createdAt,value
2022-11-15T11:01:53.710Z,91.20
2022-11-15T11:04:22.439Z,89.70
2022-11-15T11:06:53.037Z,88.20
2022-11-15T11:09:33.321Z,87.60
2022-11-15T11:12:03.277Z,86.30
2022-11-15T11:14:34.683Z,86.20
2022-11-15T11:17:15.610Z,85.20
2022-11-15T11:19:57.235Z,82.40
2022-11-15T11:22:32.905Z,82.20
2022-11-15T11:25:21.428Z,81.90
2022-11-15T11:28:03.522Z,81.70
2022-11-15T11:30:44.156Z,81.90
2022-11-15T11:33:20.467Z,81.00
2022-11-15T11:36:00.531Z,79.90
2022-11-15T11:38:42.112Z,79.90
2022-11-15T11:41:20.693Z,80.50
2022-11-15T11:44:01.193Z,78.30
2022-11-15T11:46:41.422Z,78.40
2022-11-15T11:49:17.762Z,79.20
2022-11-15T11:51:53.166Z,79.30
2022-11-15T11:54:29.083Z,79.90
2022-11-15T11:57:00.689Z,79.50
2022-11-15T11:59:36.284Z,79.30
2022-11-15T12:02:14.300Z,79.00
2022-11-15T12:04:49.123Z,78.10
2022-11-15T12:07:24.122Z,78.60
2022-11-15T12:18:20.170Z,77.70
2022-11-15T12:20:56.537Z,76.80
2022-11-15T12:23:31.708Z,76.30
2022-11-15T12:26:06.882Z,74.20
2022-11-15T12:28:53.171Z,74.40
2022-11-15T12:31:38.327Z,74.90
2022-11-15T12:34:18.374Z,75.20
2022-11-15T12:36:51.978Z,74.10
2022-11-15T12:39:21.938Z,73.40
2022-11-15T12:42:31.171Z,72.70
2022-11-15T12:45:01.492Z,71.60
2022-11-15T12:47:30.062Z,71.60
2022-11-15T12:49:58.681Z,71.70
2022-11-15T12:52:29.106Z,71.90
2022-11-15T12:55:33.275Z,71.10
2022-11-15T12:58:29.972Z,70.00
2022-11-15T13:00:58.889Z,70.70
2022-11-15T13:03:31.831Z,72.00
2022-11-15T13:06:05.154Z,72.20
2022-11-15T13:08:52.645Z,73.50
2022-11-15T13:11:52.786Z,73.20
2022-11-15T13:14:58.328Z,72.60
2022-11-15T13:17:34.469Z,72.00
2022-11-15T13:20:20.064Z,72.00
2022-11-15T13:22:52.931Z,73.80
2022-11-15T13:25:54.209Z,76.00
2022-11-15T13:28:29.842Z,77.30
2022-11-15T13:31:01.191Z,78.60
2022-11-15T13:33:36.232Z,78.90
2022-11-15T13:36:08.371Z,79.60
2022-11-15T13:38:38.983Z,80.50
2022-11-15T13:41:23.176Z,80.90
2022-11-15T13:43:52.853Z,81.60
2022-11-15T13:46:23.698Z,81.60
2022-11-15T13:48:58.066Z,81.90
2022-11-15T13:51:33.497Z,82.10
2022-11-15T13:54:06.386Z,82.20
2022-11-15T13:56:37.332Z,81.80
2022-11-15T13:59:12.136Z,81.50
2022-11-15T14:01:44.895Z,80.40
2022-11-15T14:04:16.700Z,80.60
2022-11-15T14:06:51.872Z,81.60
2022-11-15T14:09:39.063Z,82.70
2022-11-15T14:12:27.246Z,83.40
2022-11-15T14:14:56.362Z,83.40
2022-11-15T14:17:38.709Z,83.70
2022-11-15T14:20:29.524Z,83.40
2022-11-15T14:22:59.358Z,83.00
2022-11-15T14:25:28.907Z,82.80
2022-11-15T14:28:32.040Z,83.50
2022-11-15T14:31:02.497Z,84.60
2022-11-15T14:33:33.433Z,85.70
2022-11-15T14:36:06.792Z,86.40
2022-11-15T14:38:36.178Z,87.10
2022-11-15T14:41:04.930Z,87.80
2022-11-15T14:43:35.266Z,88.10
2022-11-15T14:46:03.732Z,88.80
2022-11-15T14:48:32.930Z,89.20
2022-11-15T14:51:02.012Z,89.60
2022-11-15T14:53:30.652Z,89.90
2022-11-15T14:55:59.448Z,90.20
2022-11-15T14:58:28.184Z,90.30
2022-11-15T15:00:58.262Z,90.60
2022-11-15T15:03:26.801Z,90.70
2022-11-15T15:05:55.486Z,90.80
2022-11-15T15:08:24.027Z,91.10
2022-11-15T15:10:52.578Z,91.10
2022-11-15T15:13:23.281Z,91.30
2022-11-15T15:15:52.893Z,91.40
2022-11-15T15:18:23.061Z,91.80
2022-11-15T15:20:57.886Z,91.70
2022-11-15T15:23:30.376Z,92.00
2022-11-15T15:25:59.210Z,92.00
2022-11-15T15:28:31.413Z,92.30
2022-11-15T15:31:03.066Z,92.40
2022-11-15T15:33:33.189Z,92.60
2022-11-15T15:36:02.119Z,92.90
2022-11-15T15:38:33.681Z,93.10
2022-11-15T15:41:03.962Z,93.20
2022-11-15T15:43:32.463Z,93.40
2022-11-15T15:46:00.803Z,93.60
2022-11-15T15:48:29.291Z,93.60
2022-11-15T15:50:59.397Z,93.80
2022-11-15T15:53:27.923Z,94.00
2022-11-15T15:55:56.320Z,94.10
2022-11-15T15:58:24.782Z,94.20
2022-11-15T16:00:53.670Z,94.30
2022-11-15T16:03:22.310Z,94.40
2022-11-15T16:05:52.588Z,94.60
2022-11-15T16:08:24.081Z,94.60
2022-11-15T16:10:52.754Z,94.60
2022-11-15T16:13:21.136Z,94.80
2022-11-15T16:15:52.481Z,94.80
2022-11-15T16:18:21.565Z,94.80
2022-11-15T16:20:53.525Z,95.10
2022-11-15T16:23:25.620Z,95.00
2022-11-15T16:25:56.866Z,95.00
2022-11-15T16:28:26.825Z,95.10
2022-11-15T16:31:03.421Z,95.10
2022-11-15T16:33:32.578Z,95.00
2022-11-15T16:36:05.381Z,95.10
2022-11-15T16:38:36.796Z,95.20
2022-11-15T16:41:05.657Z,95.20
2022-11-15T16:43:34.209Z,95.30
2022-11-15T16:46:13.647Z,95.40
2022-11-15T16:48:42.519Z,95.40
2022-11-15T16:51:10.953Z,95.50
2022-11-15T16:53:41.131Z,95.50
2022-11-15T16:56:27.546Z,95.50
2022-11-15T16:58:58.642Z,95.60
2022-11-15T17:01:29.068Z,95.60
2022-11-15T17:04:03.286Z,95.70
2022-11-15T17:06:33.118Z,95.70
2022-11-15T17:09:03.548Z,95.80
2022-11-15T17:11:32.367Z,95.80
2022-11-15T17:14:01.382Z,96.00
2022-11-15T17:16:30.213Z,96.10
2022-11-15T17:18:58.967Z,96.10
2022-11-15T17:21:33.536Z,96.10
2022-11-15T17:24:04.189Z,96.20
2022-11-15T17:26:37.650Z,96.10
2022-11-15T17:29:09.279Z,96.20
2022-11-15T17:31:38.959Z,96.10
2022-11-15T17:34:08.448Z,96.10
2022-11-15T17:36:37.743Z,96.00
2022-11-15T17:39:08.475Z,96.00
2022-11-15T17:41:37.112Z,96.10
2022-11-15T17:44:06.666Z,96.00
2022-11-15T17:46:36.851Z,95.90
2022-11-15T17:49:05.663Z,96.00
2022-11-15T17:51:34.777Z,96.00
2022-11-15T17:54:03.292Z,95.90
2022-11-15T17:56:33.427Z,96.00
2022-11-15T17:59:03.171Z,95.90
2022-11-15T18:01:33.460Z,96.00
2022-11-15T18:04:03.931Z,95.90
2022-11-15T18:06:34.576Z,96.10
2022-11-15T18:09:04.643Z,96.00
2022-11-15T18:11:38.676Z,95.90
2022-11-15T18:14:10.932Z,96.00
2022-11-15T18:16:40.600Z,96.00
2022-11-15T18:19:13.476Z,96.20
2022-11-15T18:21:59.410Z,96.40
2022-11-15T18:24:30.920Z,96.80
2022-11-15T18:27:03.005Z,96.80
2022-11-15T18:29:33.191Z,97.00
2022-11-15T18:32:05.267Z,97.60
2022-11-15T18:34:34.321Z,98.50
2022-11-15T18:37:03.962Z,99.40
2022-11-15T18:39:33.133Z,99.90
2022-11-15T18:42:03.555Z,99.90
2022-11-15T18:44:32.251Z,99.90
2022-11-15T18:47:01.052Z,99.90
2022-11-15T18:49:29.874Z,99.90
2022-11-15T18:51:59.227Z,99.90
2022-11-15T18:57:18.682Z,99.90
2022-11-15T18:59:47.302Z,99.90
2022-11-15T19:02:16.539Z,99.90
2022-11-15T19:04:45.771Z,99.90
2022-11-15T19:07:14.444Z,99.90
2022-11-15T19:09:43.795Z,99.90
2022-11-15T19:12:15.513Z,99.90
2022-11-15T19:14:48.592Z,99.90
2022-11-15T19:17:17.162Z,99.90
2022-11-15T19:19:45.818Z,99.90
2022-11-15T19:22:14.395Z,99.90
2022-11-15T19:24:43.283Z,99.90
2022-11-15T19:27:12.265Z,99.90
2022-11-15T19:29:41.422Z,99.90
2022-11-15T19:32:11.767Z,99.90
2022-11-15T19:34:41.827Z,99.90
2022-11-15T19:37:10.831Z,99.90
2022-11-15T19:39:41.188Z,99.90
2022-11-15T19:42:11.889Z,99.90
2022-11-15T19:44:40.443Z,99.90
2022-11-15T19:47:10.544Z,99.90
2022-11-15T19:49:39.241Z,99.90
2022-11-15T19:52:08.026Z,99.90
2022-11-15T19:54:39.388Z,99.90
2022-11-15T19:57:08.968Z,99.90
2022-11-15T19:59:37.657Z,99.90
2022-11-15T20:02:06.396Z,99.90
2022-11-15T20:04:36.737Z,99.90
2022-11-15T20:07:05.383Z,99.90
2022-11-15T20:09:34.082Z,99.90
2022-11-15T20:12:02.667Z,99.90
2022-11-15T20:14:32.089Z,99.90
2022-11-15T20:17:00.765Z,99.90
2022-11-15T20:19:29.684Z,99.90
2022-11-15T20:21:59.698Z,99.90
2022-11-15T20:24:28.545Z,99.90
2022-11-15T20:26:57.414Z,99.90
2022-11-15T20:29:26.281Z,99.90
2022-11-15T20:31:55.564Z,99.90
2022-11-15T20:34:24.305Z,99.90
2022-11-15T20:36:52.977Z,99.90
2022-11-15T20:39:23.123Z,99.90
2022-11-15T20:41:51.898Z,99.90
2022-11-15T20:44:20.496Z,99.90
2022-11-15T20:46:49.195Z,99.90
2022-11-15T20:49:17.896Z,99.90
2022-11-15T20:51:46.408Z,99.90
2022-11-15T20:58:49.287Z,99.90
2022-11-15T21:01:26.908Z,99.90
2022-11-15T21:04:26.576Z,99.90
2022-11-15T21:07:34.452Z,99.90
2022-11-15T21:10:25.697Z,99.90
2022-11-15T21:12:54.621Z,99.90
2022-11-15T21:15:31.327Z,99.90
2022-11-15T21:18:00.204Z,99.90
2022-11-15T21:20:29.379Z,99.90
2022-11-15T21:22:58.139Z,99.90
2022-11-15T21:25:29.063Z,99.90
2022-11-15T21:27:57.723Z,99.90
2022-11-15T21:30:27.214Z,99.90
2022-11-15T21:32:55.747Z,99.90
2022-11-15T21:35:30.169Z,99.90
2022-11-15T21:37:58.776Z,99.90
2022-11-15T21:40:28.875Z,99.90
2022-11-15T21:42:57.706Z,99.90
2022-11-15T21:45:25.965Z,99.90
2022-11-15T21:47:54.546Z,99.90
2022-11-15T21:50:23.236Z,99.90
2022-11-15T21:52:51.917Z,99.90
2022-11-15T21:55:23.360Z,99.90
2022-11-15T21:57:54.577Z,99.90
2022-11-15T22:00:40.023Z,99.90
2022-11-15T22:03:08.707Z,99.90
2022-11-15T22:05:37.186Z,99.90
2022-11-15T22:08:06.107Z,99.90
2022-11-15T22:10:34.993Z,99.90
2022-11-15T22:13:05.453Z,99.90
2022-11-15T22:15:34.196Z,99.90
2022-11-15T22:18:02.765Z,99.90
2022-11-15T22:20:44.534Z,99.90
2022-11-15T22:23:13.615Z,99.90
2022-11-15T22:25:42.450Z,99.90
2022-11-15T22:28:12.496Z,99.90
2022-11-15T22:30:42.980Z,99.90
2022-11-15T22:33:11.649Z,99.90
2022-11-15T22:35:45.247Z,99.90
2022-11-15T22:38:14.294Z,99.90
2022-11-15T22:40:44.669Z,99.90
2022-11-15T22:43:16.785Z,99.90
2022-11-15T22:45:53.204Z,99.90
2022-11-15T22:48:23.210Z,99.90
2022-11-15T22:50:52.122Z,99.90
2022-11-15T22:53:21.409Z,99.90
2022-11-15T22:55:54.298Z,99.90
2022-11-15T22:58:26.389Z,99.90
2022-11-15T23:00:58.332Z,99.90
2022-11-15T23:03:29.072Z,99.90
2022-11-15T23:06:03.163Z,99.90
2022-11-15T23:08:33.025Z,99.90
2022-11-15T23:11:19.674Z,99.90
2022-11-15T23:13:52.856Z,99.90
2022-11-15T23:16:26.199Z,99.90
2022-11-15T23:18:59.051Z,99.90
2022-11-15T23:21:46.626Z,99.90
2022-11-15T23:24:16.506Z,99.90
2022-11-15T23:26:46.674Z,99.90
2022-11-15T23:29:19.079Z,99.90
2022-11-15T23:32:04.994Z,99.90
2022-11-15T23:34:36.585Z,99.90
2022-11-15T23:37:06.350Z,99.90
2022-11-15T23:39:35.071Z,99.90
2022-11-15T23:42:08.745Z,99.90
2022-11-15T23:44:39.718Z,99.90
2022-11-15T23:47:08.691Z,99.90
2022-11-15T23:49:37.318Z,99.90
2022-11-15T23:52:06.708Z,99.90
2022-11-15T23:54:35.567Z,99.90
2022-11-15T23:57:12.042Z,99.90
2022-11-15T23:59:43.618Z,99.90
